Last 7 Days

Williams 2 (WL2)

Hourly Data | America/Los_Angeles
as of 6/18/19 9:42 PM PDT
Date & Time Temp (°F) RH (%) Dew Pt (°F) Wind Spd (mph) Wind Dir (°) Wind Gust (mph) Wind Gst Dir (°) Latest Rain (In) Solar Rad Tot Hr (Cal/cm2) Daily Rain (In) Daily Min Temp (°F) Daily Max Temp (°F)
6/18/19 - 2100 75.6 53 57.0 5.3 WNW | 301 9.5 WNW | 286 0.00 1 0.00 58.1 96.6
6/18/19 - 2000 82.1 44 58.2 6.3 NW | 321 11.8 NW | 320 0.00 11 0.00 58.1 96.6
6/18/19 - 1900 87.6 38 58.7 7.2 NNW | 328 12.3 NNW | 333 0.00 26 0.00 58.1 96.6
6/18/19 - 1800 92.8 33 59.3 6.2 NNW | 338 11.1 WNW | 303 0.00 42 0.00 58.1 96.6
6/18/19 - 1700 94.0 33 60.4 7.2 NNW | 342 11.8 N | 2 0.00 56 0.00 58.1 96.6
6/18/19 - 1600 95.6 32 60.9 6.5 NNW | 347 11.6 N | 352 0.00 68 0.00 58.1 96.6
6/18/19 - 1500 94.4 33 61.2 6.7 NNW | 347 11.5 NNW | 341 0.00 75 0.00 58.1 95.3
6/18/19 - 1400 93.1 34 60.5 2.7 ESE | 103 7.1 ESE | 109 0.00 78 0.00 58.1 94.8
6/18/19 - 1300 89.9 37 59.9 4.8 E | 99 8.6 ESE | 102 0.00 77 0.00 58.1 91.7
6/18/19 - 1200 86.9 39 59.1 4.5 E | 100 8.6 ESE | 110 0.00 72 0.00 58.1 88.3
6/18/19 - 1100 82.6 45 59.0 2.9 E | 93 5.9 E | 81 0.00 63 0.00 58.1 85.6
6/18/19 - 1000 76.9 55 59.2 2.8 ESE | 105 5.8 SE | 129 0.00 51 0.00 58.1 79.9
6/18/19 - 0900 71.9 64 59.1 1.6 SE | 140 4.6 ESE | 115 0.00 36 0.00 58.1 74.4
6/18/19 - 0800 66.2 74 57.5 0.3 S | 179 3.1 S | 182 0.00 21 0.00 58.1 69.0
6/18/19 - 0700 59.0 86 54.8 0.0 SE | 126 2.2 SE | 126 0.00 3 0.00 58.1 64.9
6/18/19 - 0600 59.0 84 54.4 0.1 ENE | 65 2.6 E | 97 0.00 0 0.00 58.1 64.9
6/18/19 - 0500 60.0 83 54.8 0.1 SE | 144 2.1 SSE | 160 0.00 0 0.00 59.6 64.9
6/18/19 - 0400 61.6 79 55.0 0.1 W | 270 2.1 WSW | 257 0.00 0 0.00 60.2 64.9
6/18/19 - 0300 63.6 76 55.9 1.2 ESE | 104 3.8 E | 96 0.00 0 0.00 62.4 64.9
6/18/19 - 0200 63.9 75 55.8 0.7 ENE | 59 2.7 ENE | 62 0.00 0 0.00 63.1 64.9
6/18/19 - 0100 64.0 74 55.7 0.4 NNE | 20 2.4 ENE | 62 0.00 0 0.00 63.4 64.6
6/18/19 - 0000 66.0 68 55.3 0.5 NNE | 16 3.3 N | 0 0.00 0 0.00 53.9 91.8
6/17/19 - 2300 68.4 63 55.3 1.6 N | 358 6.1 N | 349 0.00 0 0.00 53.9 91.8
6/17/19 - 2200 70.9 59 56.0 2.2 NNE | 13 6.8 NNW | 340 0.00 0 0.00 53.9 91.8
6/17/19 - 2100 76.3 52 57.5 2.0 NNW | 344 4.8 NNW | 336 0.00 1 0.00 53.9 91.8
6/17/19 - 2000 83.7 42 58.4 4.0 NNW | 346 8.1 N | 353 0.00 12 0.00 53.9 91.8
6/17/19 - 1900 86.8 38 58.2 6.6 NNW | 336 14.0 NNW | 330 0.00 26 0.00 53.9 91.8
6/17/19 - 1800 88.5 37 59.1 7.8 NNW | 337 15.3 NNW | 336 0.00 41 0.00 53.9 91.8
6/17/19 - 1700 90.2 36 59.8 9.0 NNW | 344 16.2 NNW | 335 0.00 55 0.00 53.9 91.8
6/17/19 - 1600 90.8 36 60.5 7.2 NNW | 337 12.3 NNW | 338 0.00 66 0.00 53.9 91.8
6/17/19 - 1500 89.7 38 60.4 7.0 NNW | 338 12.0 NNW | 336 0.00 74 0.00 53.9 91.0
6/17/19 - 1400 88.2 40 60.8 4.6 ESE | 120 10.3 NW | 312 0.00 76 0.00 53.9 90.0
6/17/19 - 1300 84.6 43 59.6 5.6 ESE | 105 10.6 ESE | 107 0.00 75 0.00 53.9 87.4
6/17/19 - 1200 80.6 48 59.4 4.2 SE | 130 8.1 ESE | 118 0.00 71 0.00 53.9 83.2
6/17/19 - 1100 76.4 54 58.7 4.2 ESE | 115 10.0 ESE | 119 0.00 62 0.00 53.9 78.1
6/17/19 - 1000 72.2 60 57.6 2.5 SE | 128 6.4 E | 88 0.00 50 0.00 53.9 75.1
6/17/19 - 0900 67.1 68 56.0 0.9 S | 169 4.8 SSE | 168 0.00 35 0.00 53.9 69.6
6/17/19 - 0800 60.4 78 53.7 0.3 NNE | 22 3.1 ESE | 104 0.00 20 0.00 53.9 63.6
6/17/19 - 0700 55.2 88 51.7 0.0 ESE | 113 1.2 ESE | 113 0.00 3 0.00 53.9 58.9
6/17/19 - 0600 54.4 88 50.8 0.0 N | 0 0.0 SSE | 150 0.00 0 0.00 53.9 58.9
6/17/19 - 0500 54.9 87 51.1 0.0 NE | 41 2.2 N | 0 0.00 0 0.00 54.6 58.9
6/17/19 - 0400 55.3 86 51.3 0.0 WSW | 256 2.2 W | 264 0.00 0 0.00 54.8 58.9
6/17/19 - 0300 56.1 84 51.4 0.0 ESE | 108 1.6 ESE | 112 0.00 0 0.00 55.4 58.9
6/17/19 - 0200 56.8 83 51.7 0.0 ESE | 121 1.7 ESE | 119 0.00 0 0.00 56.3 58.9
6/17/19 - 0100 57.9 80 51.8 0.4 ESE | 111 3.3 ESE | 114 0.00 0 0.00 57.0 58.9
6/17/19 - 0000 59.7 75 51.8 1.5 ESE | 111 5.8 ENE | 67 0.00 0 0.00 46.6 85.2
6/16/19 - 2300 62.7 70 52.7 1.0 ESE | 116 4.6 ESE | 112 0.00 0 0.00 46.6 85.2
6/16/19 - 2200 65.0 65 53.1 1.8 NW | 315 7.4 WNW | 295 0.00 0 0.00 46.6 85.2
6/16/19 - 2100 67.8 62 54.6 4.0 NNW | 336 9.3 NNW | 337 0.00 1 0.00 46.6 85.2
6/16/19 - 2000 73.6 54 56.1 5.7 NW | 310 10.1 N | 353 0.00 10 0.00 46.6 85.2
6/16/19 - 1900 78.8 48 57.2 6.0 NW | 322 12.1 NW | 309 0.00 25 0.00 46.6 85.2
6/16/19 - 1800 79.8 46 57.3 6.4 NNW | 330 13.3 NNW | 331 0.00 27 0.00 46.6 85.2
6/16/19 - 1700 82.6 44 58.3 7.6 NNW | 328 13.8 NNW | 330 0.00 50 0.00 46.6 85.2
6/16/19 - 1600 84.3 38 56.2 7.2 NNW | 330 12.3 NNW | 343 0.00 67 0.00 46.6 85.2
6/16/19 - 1500 84.2 38 55.8 6.2 NNW | 340 12.0 NNE | 18 0.00 74 0.00 46.6 85.2
6/16/19 - 1400 79.9 48 58.2 3.2 ESE | 115 8.0 ESE | 116 0.00 77 0.00 46.6 83.2
6/16/19 - 1300 76.0 52 57.2 3.8 SE | 125 8.6 ESE | 105 0.00 77 0.00 46.6 77.6
6/16/19 - 1200 72.1 58 56.4 3.7 ESE | 108 7.6 E | 94 0.00 72 0.00 46.6 75.0
6/16/19 - 1100 68.8 62 55.3 3.4 SE | 128 8.8 E | 95 0.00 63 0.00 46.6 70.1
6/16/19 - 1000 65.3 67 54.2 2.4 SE | 136 6.3 ESE | 108 0.00 51 0.00 46.6 67.8
6/16/19 - 0900 61.0 74 52.6 1.0 SSE | 162 3.9 S | 176 0.00 36 0.00 46.6 63.1
6/16/19 - 0800 55.8 83 50.7 0.0 ESE | 116 1.6 NE | 44 0.00 21 0.00 46.6 59.2
6/16/19 - 0700 48.2 92 46.0 0.0 N | 0 0.0 ENE | 61 0.00 3 0.00 46.6 53.6
6/16/19 - 0600 46.9 92 44.6 0.0 N | 0 0.0 NE | 42 0.00 0 0.00 46.6 53.6
6/16/19 - 0500 47.2 91 44.6 0.0 N | 0 0.0 N | 10 0.00 0 0.00 46.8 53.6
6/16/19 - 0400 47.8 90 45.0 0.0 N | 0 0.0 N | 6 0.00 0 0.00 47.3 53.6
6/16/19 - 0300 49.0 89 45.9 0.0 N | 0 0.0 NW | 308 0.00 0 0.00 48.1 53.6
6/16/19 - 0200 50.6 88 47.3 0.0 WSW | 250 1.7 W | 263 0.00 0 0.00 49.6 53.6
6/16/19 - 0100 52.4 86 48.4 0.0 N | 0 0.0 N | 355 0.00 0 0.00 51.2 53.6
6/16/19 - 0000 54.2 84 49.6 0.0 NE | 46 1.7 NE | 37 0.00 0 0.00 46.1 79.0
6/15/19 - 2300 56.4 81 50.7 0.1 ENE | 74 2.1 ENE | 66 0.00 0 0.00 46.1 79.0
6/15/19 - 2200 59.6 76 51.9 1.1 E | 98 4.3 ESE | 105 0.00 0 0.00 46.1 79.0
6/15/19 - 2100 64.0 67 52.8 1.7 N | 4 6.9 NNE | 33 0.00 1 0.00 46.1 79.0
6/15/19 - 2000 69.9 58 54.4 3.5 N | 2 7.8 N | 7 0.00 11 0.00 46.1 79.0
6/15/19 - 1900 73.3 53 55.0 5.3 N | 349 10.5 NNW | 341 0.00 26 0.00 46.1 79.0
6/15/19 - 1800 76.1 48 55.2 6.0 NNW | 342 9.8 N | 1 0.00 44 0.00 46.1 79.0
6/15/19 - 1700 76.9 48 55.9 6.2 N | 352 11.3 N | 352 0.00 52 0.00 46.1 79.0
6/15/19 - 1600 76.6 49 56.2 6.0 NNW | 332 10.3 NNW | 336 0.00 64 0.00 46.1 79.0
6/15/19 - 1500 77.1 49 56.4 5.6 NNW | 339 9.8 N | 354 0.00 72 0.00 46.1 79.0
6/15/19 - 1400 76.5 49 56.0 4.7 NE | 47 10.8 SE | 146 0.00 77 0.00 46.1 79.0
6/15/19 - 1300 73.6 52 55.1 3.7 WSW | 247 9.8 NW | 312 0.00 78 0.00 46.1 75.5
6/15/19 - 1200 69.9 57 54.0 3.9 S | 186 8.8 S | 174 0.00 74 0.00 46.1 72.1
6/15/19 - 1100 67.4 60 53.2 4.0 S | 190 9.1 S | 182 0.00 65 0.00 46.1 69.1
6/15/19 - 1000 64.0 66 52.3 2.9 S | 176 7.4 S | 170 0.00 52 0.00 46.1 66.2
6/15/19 - 0900 59.8 73 51.0 0.7 S | 181 4.3 ESE | 120 0.00 37 0.00 46.1 62.3
6/15/19 - 0800 54.6 84 49.9 0.2 SE | 127 2.4 ESE | 119 0.00 21 0.00 46.1 58.1
6/15/19 - 0700 47.5 92 45.3 0.0 N | 0 0.0 S | 183 0.00 3 0.00 46.1 55.8
6/15/19 - 0600 46.7 91 44.3 0.0 N | 0 0.0 W | 280 0.00 0 0.00 46.1 55.8
6/15/19 - 0500 47.4 90 44.7 0.0 N | 0 0.0 N | 11 0.00 0 0.00 46.6 55.8
6/15/19 - 0400 49.5 90 46.5 0.1 NE | 41 1.6 ENE | 57 0.00 0 0.00 48.0 55.8
6/15/19 - 0300 50.8 89 47.7 0.2 NE | 36 2.1 NE | 42 0.00 0 0.00 49.9 55.8
6/15/19 - 0200 52.2 87 48.6 0.1 NE | 38 2.1 ENE | 62 0.00 0 0.00 51.1 55.8
6/15/19 - 0100 54.3 84 49.7 0.2 ESE | 120 2.9 SE | 124 0.00 0 0.00 52.8 55.8
6/15/19 - 0000 56.0 82 50.6 0.2 E | 86 3.3 SE | 126 0.00 0 0.00 50.8 86.1
6/14/19 - 2300 59.7 75 51.8 0.7 E | 87 3.8 ENE | 69 0.00 0 0.00 50.8 86.1
6/14/19 - 2200 63.7 67 52.8 2.4 WNW | 292 6.1 W | 275 0.00 0 0.00 50.8 86.1
6/14/19 - 2100 67.2 64 54.8 2.0 WNW | 282 7.4 WNW | 299 0.00 1 0.00 50.8 86.1
6/14/19 - 2000 72.3 57 56.0 6.3 NW | 319 11.1 NW | 315 0.00 11 0.00 50.8 86.1
6/14/19 - 1900 77.8 50 57.6 7.7 NNW | 331 14.3 NNW | 342 0.00 26 0.00 50.8 86.1
6/14/19 - 1800 81.9 47 59.7 7.5 NNW | 328 12.8 NNW | 333 0.00 41 0.00 50.8 86.1
6/14/19 - 1700 84.4 43 59.6 8.0 NNW | 331 12.8 NNW | 333 0.00 55 0.00 50.8 86.1
6/14/19 - 1600 84.5 42 58.8 9.0 NNW | 348 14.5 N | 355 0.00 67 0.00 50.8 85.6
6/14/19 - 1500 84.9 42 59.1 6.7 NNW | 336 11.5 N | 0 0.00 74 0.00 50.8 85.6
6/14/19 - 1400 82.4 45 59.1 3.2 ESE | 107 6.9 ESE | 109 0.00 77 0.00 50.8 85.2
6/14/19 - 1300 78.4 49 57.8 4.1 ESE | 117 8.8 E | 100 0.00 76 0.00 50.8 81.2
6/14/19 - 1200 73.7 54 56.2 3.3 SE | 128 7.6 SE | 125 0.00 72 0.00 50.8 76.0
6/14/19 - 1100 70.5 58 54.8 2.9 E | 81 6.9 E | 99 0.00 63 0.00 50.8 72.4
6/14/19 - 1000 66.6 64 54.0 2.4 SE | 130 6.9 ENE | 72 0.00 51 0.00 50.8 69.1
6/14/19 - 0900 62.7 70 52.7 1.2 SE | 144 4.4 SE | 125 0.00 36 0.00 50.8 65.2
6/14/19 - 0800 58.4 78 51.6 0.6 SE | 133 3.6 SSE | 157 0.00 21 0.00 50.8 61.3
6/14/19 - 0700 52.0 90 49.3 0.0 N | 0 0.0 E | 91 0.00 3 0.00 50.8 60.5
6/14/19 - 0600 51.5 90 48.6 0.0 N | 0 0.0 NE | 53 0.00 0 0.00 50.8 60.5
6/14/19 - 0500 53.0 87 49.2 0.0 N | 0 0.0 SE | 135 0.00 0 0.00 52.0 60.5
6/14/19 - 0400 54.4 86 50.4 0.3 E | 88 2.6 ENE | 60 0.00 0 0.00 54.0 60.5
6/14/19 - 0300 55.8 84 50.9 0.6 E | 92 2.4 E | 92 0.00 0 0.00 54.8 60.5
6/14/19 - 0200 57.6 80 51.6 2.1 E | 92 5.8 ESE | 111 0.00 0 0.00 56.4 60.5
6/14/19 - 0100 58.8 78 51.9 0.3 ESE | 116 4.8 ESE | 122 0.00 0 0.00 58.0 60.5
6/14/19 - 0000 61.3 72 52.2 1.6 E | 83 4.9 ENE | 73 0.00 0 0.00 57.1 86.2
6/13/19 - 2300 64.1 67 53.1 1.0 ESE | 122 4.1 SE | 134 0.00 0 0.00 57.1 86.2
6/13/19 - 2200 67.6 65 55.4 0.5 SE | 146 2.7 E | 96 0.00 0 0.00 57.1 86.2
6/13/19 - 2100 73.7 55 56.3 1.4 S | 176 5.1 SE | 128 0.00 1 0.00 57.1 86.2
6/13/19 - 2000 78.4 45 55.4 7.3 NNW | 347 15.7 N | 0 0.00 8 0.00 57.1 86.2
6/13/19 - 1900 80.8 44 56.9 8.7 N | 3 15.8 N | 353 0.00 26 0.00 57.1 86.2
6/13/19 - 1800 82.3 43 57.8 10.2 NNW | 344 16.0 NNW | 330 0.00 36 0.00 57.1 86.2
6/13/19 - 1700 85.0 40 58.2 7.4 N | 351 13.3 NW | 308 0.00 57 0.00 57.1 86.2
6/13/19 - 1600 84.6 41 58.2 8.5 NNW | 346 14.6 NNW | 336 0.00 64 0.00 57.1 85.7
6/13/19 - 1500 84.4 41 57.8 8.1 NNW | 344 14.5 NNW | 337 0.00 71 0.00 57.1 85.2
6/13/19 - 1400 83.9 40 56.8 8.5 NNW | 342 16.2 N | 0 0.00 77 0.00 57.1 85.0
6/13/19 - 1300 82.7 40 55.9 8.8 N | 355 14.5 N | 350 0.00 78 0.00 57.1 84.4
6/13/19 - 1200 80.5 44 56.4 4.9 N | 357 12.1 N | 8 0.00 74 0.00 57.1 81.8
6/13/19 - 1100 76.3 49 55.5 5.0 N | 4 9.5 NNE | 32 0.00 65 0.00 57.1 79.1
6/13/19 - 1000 73.2 52 54.4 4.9 NNW | 348 10.0 N | 2 0.00 52 0.00 57.1 74.6
6/13/19 - 0900 68.9 62 55.4 1.6 SSW | 205 6.9 NNW | 345 0.00 37 0.00 57.1 71.2
6/13/19 - 0800 64.5 73 55.5 1.1 SSE | 166 4.1 S | 182 0.00 21 0.00 57.1 66.6
6/13/19 - 0700 58.7 83 53.6 1.9 ESE | 116 4.6 ESE | 120 0.00 3 0.00 57.1 64.3
6/13/19 - 0600 58.2 82 52.7 0.9 NE | 46 3.9 ESE | 103 0.00 0 0.00 57.1 64.3
6/13/19 - 0500 58.5 80 52.2 0.1 N | 353 1.9 N | 355 0.00 0 0.00 57.8 64.3
6/13/19 - 0400 60.3 75 52.5 0.2 ENE | 66 2.6 E | 95 0.00 0 0.00 59.0 64.3
6/13/19 - 0300 62.0 71 52.6 0.9 NE | 38 3.6 N | 9 0.00 0 0.00 61.3 64.3
6/13/19 - 0200 62.1 73 53.2 0.4 NNE | 28 3.6 NNE | 18 0.00 0 0.00 61.3 64.3
6/13/19 - 0100 63.3 72 54.2 0.1 E | 92 1.9 NE | 51 0.00 0 0.00 62.4 64.3
6/13/19 - 0000 65.2 69 54.8 0.3 NE | 43 2.2 ENE | 63 0.00 0 0.00 63.7 101.6
6/12/19 - 2300 68.5 64 55.9 0.6 E | 97 2.4 ESE | 111 0.00 0 0.00 66.5 101.6
6/12/19 - 2200 73.0 55 56.0 1.0 SE | 138 3.6 WNW | 290 0.00 0 0.00 70.7 101.6
6/12/19 - 2100 77.7 49 56.8 2.7 NNW | 337 7.4 NNW | 346 0.00 1 0.00 71.8 101.6
6/12/19 - 2000 85.8 37 56.7 4.7 NNW | 328 9.5 NNW | 334 0.00 10 0.00 71.8 101.6
6/12/19 - 1900 91.3 33 57.9 4.0 N | 352 8.8 NW | 320 0.00 25 0.00 71.8 101.6
6/12/19 - 1800 95.8 29 58.1 6.7 N | 351 12.6 N | 0 0.00 41 0.00 71.8 101.6
6/12/19 - 1700 98.7 26 57.7 6.1 NNW | 339 11.3 N | 355 0.00 55 0.00 71.8 101.6
6/12/19 - 1600 100.4 18 48.2 4.8 NW | 308 10.0 W | 270 0.00 67 0.00 71.8 101.6
6/12/19 - 1500 100.0 21 53.4 3.1 S | 179 9.0 S | 179 0.00 74 0.00 71.8 101.2
6/12/19 - 1400 96.8 26 55.9 4.0 SE | 125 9.0 ESE | 109 0.00 79 0.00 71.8 98.4
6/12/19 - 1300 94.6 28 56.4 3.4 SSE | 149 7.6 ESE | 123 0.00 75 0.00 71.8 95.5
6/12/19 - 1200 93.2 27 54.5 3.0 SSE | 158 7.6 SSE | 147 0.00 74 0.00 71.8 94.3
6/12/19 - 1100 89.6 30 53.8 2.0 S | 183 5.6 WSW | 242 0.00 64 0.00 71.8 91.8
6/12/19 - 1000 86.2 33 53.8 2.7 SE | 141 6.9 SE | 140 0.00 52 0.00 71.8 88.8
6/12/19 - 0900 80.3 37 51.7 4.1 NNW | 329 8.6 N | 354 0.00 31 0.00 71.8 83.9
6/12/19 - 0800 75.1 43 51.0 2.5 N | 352 7.8 NNE | 26 0.00 8 0.00 71.8 79.8
6/12/19 - 0700 73.9 43 49.9 2.7 NW | 325 8.8 N | 352 0.00 3 0.00 71.8 79.8
6/12/19 - 0600 76.4 35 47.1 4.8 NNW | 339 10.1 NNW | 330 0.00 0 0.00 72.0 79.8
6/12/19 - 0500 76.2 37 48.1 3.1 NNW | 345 6.8 NNW | 348 0.00 0 0.00 72.0 79.8
6/12/19 - 0400 74.3 43 50.2 1.7 N | 349 6.3 NW | 323 0.00 0 0.00 72.0 79.8
6/12/19 - 0300 76.4 39 49.6 1.5 N | 353 10.3 NNW | 327 0.00 0 0.00 73.4 79.8
6/12/19 - 0200 78.2 35 48.6 6.8 NNW | 336 10.5 NW | 321 0.00 0 0.00 75.7 79.2
6/12/19 - 0100 76.7 39 49.7 6.7 NNW | 333 10.3 NNW | 334 0.00 0 0.00 75.7 77.3
6/12/19 - 0000 75.7 42 50.9 5.4 NNW | 339 9.6 NW | 317 0.00 0 0.00 65.2 103.2
6/11/19 - 2300 77.5 40 51.6 2.4 N | 354 8.3 NNW | 327 0.00 0 0.00 65.2 103.2
6/11/19 - 2200 81.4 35 51.2 3.2 N | 350 6.9 NW | 308 0.00 0 0.00 65.2 103.2
Max 100.4 92 61.2 10.2 - 16.2 - 0.00 79 0.00 75.7 103.2
Avg 71.3 59 54.2 3.1 - 6.9 - 0.00 28 - - -
Min 46.7 18 44.3 0.0 - 0.0 - 0.00 0 0.00 46.1 53.6
Total - - - - - - - 0.00 - - - -
Tip: Bookmark this page for easy future reference